sensor_id;sensor_type;location;lat;lon;timestamp;pressure;altitude;pressure_sealevel;temperature;humidity
19596;BME280;9945;46.010;8.946;2023-03-18T00:00:27;97493.91;;;11.11;47.71
19596;BME280;9945;46.010;8.946;2023-03-18T00:02:54;97492.09;;;11.12;47.75
19596;BME280;9945;46.010;8.946;2023-03-18T00:05:21;97492.63;;;11.15;48.01
19596;BME280;9945;46.010;8.946;2023-03-18T00:07:48;97489.03;;;11.16;48.17
19596;BME280;9945;46.010;8.946;2023-03-18T00:10:15;97486.84;;;11.12;47.93
19596;BME280;9945;46.010;8.946;2023-03-18T00:12:43;97484.38;;;11.10;47.99
19596;BME280;9945;46.010;8.946;2023-03-18T00:15:13;97480.53;;;11.05;48.42
19596;BME280;9945;46.010;8.946;2023-03-18T00:17:40;97481.38;;;11.05;48.34
19596;BME280;9945;46.010;8.946;2023-03-18T00:20:09;97487.31;;;10.97;48.30
19596;BME280;9945;46.010;8.946;2023-03-18T00:22:38;97488.13;;;10.98;48.34
19596;BME280;9945;46.010;8.946;2023-03-18T00:25:07;97487.06;;;10.91;48.74
19596;BME280;9945;46.010;8.946;2023-03-18T00:27:34;97486.94;;;10.83;49.54
19596;BME280;9945;46.010;8.946;2023-03-18T00:30:02;97478.97;;;10.84;48.93
19596;BME280;9945;46.010;8.946;2023-03-18T00:32:31;97473.59;;;10.86;48.70
19596;BME280;9945;46.010;8.946;2023-03-18T00:34:58;97480.06;;;10.82;49.33
19596;BME280;9945;46.010;8.946;2023-03-18T00:37:27;97476.78;;;10.80;48.76
19596;BME280;9945;46.010;8.946;2023-03-18T00:39:57;97475.25;;;10.77;49.16
19596;BME280;9945;46.010;8.946;2023-03-18T00:42:29;97476.94;;;10.69;50.20
19596;BME280;9945;46.010;8.946;2023-03-18T00:45:02;97482.44;;;10.75;49.70
19596;BME280;9945;46.010;8.946;2023-03-18T00:47:30;97484.63;;;10.80;49.65
19596;BME280;9945;46.010;8.946;2023-03-18T00:49:58;97481.72;;;10.83;49.90
19596;BME280;9945;46.010;8.946;2023-03-18T00:52:25;97476.78;;;10.80;49.70
19596;BME280;9945;46.010;8.946;2023-03-18T00:54:52;97466.97;;;10.82;49.76
19596;BME280;9945;46.010;8.946;2023-03-18T00:57:18;97478.97;;;10.84;50.18
19596;BME280;9945;46.010;8.946;2023-03-18T00:59:45;97470.53;;;10.81;49.93
19596;BME280;9945;46.010;8.946;2023-03-18T01:02:12;97466.97;;;10.82;49.65
19596;BME280;9945;46.010;8.946;2023-03-18T01:04:41;97462.84;;;10.79;50.03
19596;BME280;9945;46.010;8.946;2023-03-18T01:07:08;97467.66;;;10.84;50.00
19596;BME280;9945;46.010;8.946;2023-03-18T01:09:37;97462.69;;;10.81;49.87
19596;BME280;9945;46.010;8.946;2023-03-18T01:12:06;97472.03;;;10.93;49.66
19596;BME280;9945;46.010;8.946;2023-03-18T01:14:33;97462.38;;;10.93;49.60
19596;BME280;9945;46.010;8.946;2023-03-18T01:17:01;97468.31;;;10.95;49.40
19596;BME280;9945;46.010;8.946;2023-03-18T01:19:27;97466.53;;;10.96;49.47
19596;BME280;9945;46.010;8.946;2023-03-18T01:21:56;97459.63;;;10.95;49.42
19596;BME280;9945;46.010;8.946;2023-03-18T01:24:23;97458.56;;;10.88;49.28
19596;BME280;9945;46.010;8.946;2023-03-18T01:26:50;97455.63;;;10.91;49.43
19596;BME280;9945;46.010;8.946;2023-03-18T01:29:17;97457.56;;;10.89;49.36
19596;BME280;9945;46.010;8.946;2023-03-18T01:31:45;97454.16;;;10.79;50.01
19596;BME280;9945;46.010;8.946;2023-03-18T01:34:12;97452.22;;;10.81;49.52
19596;BME280;9945;46.010;8.946;2023-03-18T01:36:40;97442.88;;;10.78;49.78
19596;BME280;9945;46.010;8.946;2023-03-18T01:39:09;97449.78;;;10.70;50.74
19596;BME280;9945;46.010;8.946;2023-03-18T01:41:36;97436.25;;;10.74;49.98
19596;BME280;9945;46.010;8.946;2023-03-18T01:44:03;97428.41;;;10.74;50.32
19596;BME280;9945;46.010;8.946;2023-03-18T01:46:34;97435.28;;;10.75;50.22
19596;BME280;9945;46.010;8.946;2023-03-18T01:49:06;97431.03;;;10.74;49.72
19596;BME280;9945;46.010;8.946;2023-03-18T01:51:33;97430.09;;;10.66;50.65
19596;BME280;9945;46.010;8.946;2023-03-18T01:54:02;97433.66;;;10.65;50.67
19596;BME280;9945;46.010;8.946;2023-03-18T01:56:32;97431.88;;;10.65;50.37
19596;BME280;9945;46.010;8.946;2023-03-18T01:59:02;97428.31;;;10.56;50.73
19596;BME280;9945;46.010;8.946;2023-03-18T02:01:33;97432.44;;;10.69;49.95
19596;BME280;9945;46.010;8.946;2023-03-18T02:04:05;97414.94;;;10.69;50.10
19596;BME280;9945;46.010;8.946;2023-03-18T02:06:33;97420.56;;;10.65;50.07
19596;BME280;9945;46.010;8.946;2023-03-18T02:09:00;97418.25;;;10.61;50.60
19596;BME280;9945;46.010;8.946;2023-03-18T02:11:32;97421.72;;;10.62;49.76
19596;BME280;9945;46.010;8.946;2023-03-18T02:14:00;97410.00;;;10.56;50.10
19596;BME280;9945;46.010;8.946;2023-03-18T02:16:32;97404.09;;;10.54;49.82
19596;BME280;9945;46.010;8.946;2023-03-18T02:19:04;97406.41;;;10.57;50.30
19596;BME280;9945;46.010;8.946;2023-03-18T02:21:42;97399.81;;;10.53;50.95
19596;BME280;9945;46.010;8.946;2023-03-18T02:24:21;97402.59;;;10.52;50.36
19596;BME280;9945;46.010;8.946;2023-03-18T02:26:56;97397.63;;;10.49;50.49
19596;BME280;9945;46.010;8.946;2023-03-18T02:29:28;97398.59;;;10.48;50.96
19596;BME280;9945;46.010;8.946;2023-03-18T02:31:59;97400.47;;;10.55;51.17
19596;BME280;9945;46.010;8.946;2023-03-18T02:34:27;97396.75;;;10.58;51.34
19596;BME280;9945;46.010;8.946;2023-03-18T02:36:55;97388.09;;;10.57;50.60
19596;BME280;9945;46.010;8.946;2023-03-18T02:39:23;97386.16;;;10.59;50.29
19596;BME280;9945;46.010;8.946;2023-03-18T02:41:50;97379.53;;;10.55;51.44
19596;BME280;9945;46.010;8.946;2023-03-18T02:44:18;97385.59;;;10.56;51.30
19596;BME280;9945;46.010;8.946;2023-03-18T02:46:51;97377.22;;;10.52;51.22
19596;BME280;9945;46.010;8.946;2023-03-18T02:49:22;97383.00;;;10.56;51.08
19596;BME280;9945;46.010;8.946;2023-03-18T02:51:49;97379.66;;;10.63;50.41
19596;BME280;9945;46.010;8.946;2023-03-18T02:54:19;97376.66;;;10.58;51.34
19596;BME280;9945;46.010;8.946;2023-03-18T02:56:46;97377.47;;;10.59;51.19
19596;BME280;9945;46.010;8.946;2023-03-18T02:59:13;97367.97;;;10.58;51.53
19596;BME280;9945;46.010;8.946;2023-03-18T03:01:42;97365.91;;;10.61;51.37
19596;BME280;9945;46.010;8.946;2023-03-18T03:04:12;97367.44;;;10.54;51.15
19596;BME280;9945;46.010;8.946;2023-03-18T03:06:40;97361.22;;;10.55;51.82
19596;BME280;9945;46.010;8.946;2023-03-18T03:09:09;97365.50;;;10.56;50.53
19596;BME280;9945;46.010;8.946;2023-03-18T03:11:38;97361.22;;;10.55;50.90
19596;BME280;9945;46.010;8.946;2023-03-18T03:14:05;97366.06;;;10.50;51.63
19596;BME280;9945;46.010;8.946;2023-03-18T03:16:32;97372.41;;;10.48;51.29
19596;BME280;9945;46.010;8.946;2023-03-18T03:18:59;97373.53;;;10.45;51.88
19596;BME280;9945;46.010;8.946;2023-03-18T03:21:27;97365.13;;;10.42;51.18
19596;BME280;9945;46.010;8.946;2023-03-18T03:23:54;97366.94;;;10.41;52.48
19596;BME280;9945;46.010;8.946;2023-03-18T03:26:21;97361.41;;;10.44;51.67
19596;BME280;9945;46.010;8.946;2023-03-18T03:28:49;97360.44;;;10.45;51.70
19596;BME280;9945;46.010;8.946;2023-03-18T03:31:16;97363.06;;;10.45;51.67
19596;BME280;9945;46.010;8.946;2023-03-18T03:33:43;97361.09;;;10.47;52.30
19596;BME280;9945;46.010;8.946;2023-03-18T03:36:12;97357.66;;;10.47;52.52
19596;BME280;9945;46.010;8.946;2023-03-18T03:38:40;97360.69;;;10.52;51.66
19596;BME280;9945;46.010;8.946;2023-03-18T03:41:08;97361.81;;;10.49;51.69
19596;BME280;9945;46.010;8.946;2023-03-18T03:43:36;97346.22;;;10.48;51.53
19596;BME280;9945;46.010;8.946;2023-03-18T03:46:03;97346.22;;;10.48;51.74
19596;BME280;9945;46.010;8.946;2023-03-18T03:48:30;97356.19;;;10.44;52.57
19596;BME280;9945;46.010;8.946;2023-03-18T03:50:57;97349.88;;;10.37;52.18
19596;BME280;9945;46.010;8.946;2023-03-18T03:53:24;97350.63;;;10.47;52.10
19596;BME280;9945;46.010;8.946;2023-03-18T03:55:53;97346.13;;;10.40;52.36
19596;BME280;9945;46.010;8.946;2023-03-18T03:58:21;97341.72;;;10.40;52.65
19596;BME280;9945;46.010;8.946;2023-03-18T04:00:48;97341.00;;;10.48;51.60
19596;BME280;9945;46.010;8.946;2023-03-18T04:03:15;97344.16;;;10.51;52.05
19596;BME280;9945;46.010;8.946;2023-03-18T04:05:42;97339.22;;;10.48;51.68
19596;BME280;9945;46.010;8.946;2023-03-18T04:08:09;97345.81;;;10.52;52.49
19596;BME280;9945;46.010;8.946;2023-03-18T04:10:35;97337.66;;;10.55;51.91
19596;BME280;9945;46.010;8.946;2023-03-18T04:13:04;97339.84;;;10.60;51.84
19596;BME280;9945;46.010;8.946;2023-03-18T04:15:31;97343.16;;;10.62;51.04
19596;BME280;9945;46.010;8.946;2023-03-18T04:17:59;97350.25;;;10.42;51.82
19596;BME280;9945;46.010;8.946;2023-03-18T04:20:32;97342.50;;;10.50;51.61
19596;BME280;9945;46.010;8.946;2023-03-18T04:22:59;97339.63;;;10.53;52.78
19596;BME280;9945;46.010;8.946;2023-03-18T04:25:27;97341.28;;;10.54;52.65
19596;BME280;9945;46.010;8.946;2023-03-18T04:27:54;97339.63;;;10.53;52.51
19596;BME280;9945;46.010;8.946;2023-03-18T04:30:22;97347.59;;;10.52;52.35
19596;BME280;9945;46.010;8.946;2023-03-18T04:32:50;97347.88;;;10.49;52.11
19596;BME280;9945;46.010;8.946;2023-03-18T04:35:17;97350.09;;;10.53;51.63
19596;BME280;9945;46.010;8.946;2023-03-18T04:37:46;97345.81;;;10.52;52.20
19596;BME280;9945;46.010;8.946;2023-03-18T04:40:13;97342.13;;;10.45;51.63
19596;BME280;9945;46.010;8.946;2023-03-18T04:42:40;97348.59;;;10.41;52.21
19596;BME280;9945;46.010;8.946;2023-03-18T04:45:08;97344.66;;;10.37;51.79
19596;BME280;9945;46.010;8.946;2023-03-18T04:47:36;97340.06;;;10.39;52.23
19596;BME280;9945;46.010;8.946;2023-03-18T04:50:03;97331.00;;;10.34;51.98
19596;BME280;9945;46.010;8.946;2023-03-18T04:52:30;97332.81;;;10.33;52.88
19596;BME280;9945;46.010;8.946;2023-03-18T04:54:58;97326.88;;;10.31;52.99
19596;BME280;9945;46.010;8.946;2023-03-18T04:57:25;97337.06;;;10.34;52.52
19596;BME280;9945;46.010;8.946;2023-03-18T04:59:52;97327.56;;;10.33;52.99
19596;BME280;9945;46.010;8.946;2023-03-18T05:02:19;97331.28;;;10.31;52.78
19596;BME280;9945;46.010;8.946;2023-03-18T05:04:47;97323.97;;;10.34;52.61
19596;BME280;9945;46.010;8.946;2023-03-18T05:07:14;97320.81;;;10.31;53.08
19596;BME280;9945;46.010;8.946;2023-03-18T05:09:41;97321.78;;;10.30;53.37
19596;BME280;9945;46.010;8.946;2023-03-18T05:12:11;97322.50;;;10.22;53.24
19596;BME280;9945;46.010;8.946;2023-03-18T05:14:39;97318.78;;;10.24;53.85
19596;BME280;9945;46.010;8.946;2023-03-18T05:17:06;97312.72;;;10.24;53.29
19596;BME280;9945;46.010;8.946;2023-03-18T05:19:33;97308.59;;;10.21;54.02
19596;BME280;9945;46.010;8.946;2023-03-18T05:22:01;97309.59;;;10.11;54.11
19596;BME280;9945;46.010;8.946;2023-03-18T05:24:28;97313.53;;;10.15;53.62
19596;BME280;9945;46.010;8.946;2023-03-18T05:26:55;97322.47;;;9.75;55.43
19596;BME280;9945;46.010;8.946;2023-03-18T05:29:22;97321.63;;;9.84;54.85
19596;BME280;9945;46.010;8.946;2023-03-18T05:31:49;97325.44;;;10.00;54.31
19596;BME280;9945;46.010;8.946;2023-03-18T05:34:16;97317.84;;;10.06;53.49
19596;BME280;9945;46.010;8.946;2023-03-18T05:36:42;97329.84;;;9.90;53.41
19596;BME280;9945;46.010;8.946;2023-03-18T05:39:11;97330.28;;;9.95;54.59
19596;BME280;9945;46.010;8.946;2023-03-18T05:41:37;97328.91;;;9.91;54.41
19596;BME280;9945;46.010;8.946;2023-03-18T05:44:05;97322.97;;;9.98;54.06
19596;BME280;9945;46.010;8.946;2023-03-18T05:46:32;97320.91;;;10.02;54.08
19596;BME280;9945;46.010;8.946;2023-03-18T05:48:59;97322.16;;;9.88;54.52
19596;BME280;9945;46.010;8.946;2023-03-18T05:51:26;97315.81;;;9.91;53.79
19596;BME280;9945;46.010;8.946;2023-03-18T05:53:53;97316.06;;;9.97;54.77
19596;BME280;9945;46.010;8.946;2023-03-18T05:56:22;97326.00;;;10.03;55.27
19596;BME280;9945;46.010;8.946;2023-03-18T05:58:50;97318.53;;;10.08;54.70
19596;BME280;9945;46.010;8.946;2023-03-18T06:01:17;97319.59;;;10.15;53.62
19596;BME280;9945;46.010;8.946;2023-03-18T06:03:44;97320.44;;;10.16;54.40
19596;BME280;9945;46.010;8.946;2023-03-18T06:06:11;97324.31;;;10.12;53.84
19596;BME280;9945;46.010;8.946;2023-03-18T06:08:38;97325.56;;;10.17;53.35
19596;BME280;9945;46.010;8.946;2023-03-18T06:11:05;97322.09;;;10.17;53.27
19596;BME280;9945;46.010;8.946;2023-03-18T06:13:34;97325.66;;;10.16;53.62
19596;BME280;9945;46.010;8.946;2023-03-18T06:16:00;97339.03;;;10.22;54.12
19596;BME280;9945;46.010;8.946;2023-03-18T06:18:28;97342.78;;;10.20;54.27
19596;BME280;9945;46.010;8.946;2023-03-18T06:20:55;97340.16;;;10.20;53.64
19596;BME280;9945;46.010;8.946;2023-03-18T06:23:22;97342.47;;;10.23;53.86
19596;BME280;9945;46.010;8.946;2023-03-18T06:25:49;97350.44;;;10.31;53.63
19596;BME280;9945;46.010;8.946;2023-03-18T06:28:16;97346.25;;;10.38;53.96
19596;BME280;9945;46.010;8.946;2023-03-18T06:30:45;97355.34;;;10.44;53.01
19596;BME280;9945;46.010;8.946;2023-03-18T06:33:12;97348.19;;;10.46;53.42
19596;BME280;9945;46.010;8.946;2023-03-18T06:35:39;97350.38;;;10.50;53.23
19596;BME280;9945;46.010;8.946;2023-03-18T06:38:06;97357.13;;;10.53;53.22
19596;BME280;9945;46.010;8.946;2023-03-18T06:40:35;97352.50;;;10.37;53.87
19596;BME280;9945;46.010;8.946;2023-03-18T06:43:02;97350.38;;;10.50;54.03
19596;BME280;9945;46.010;8.946;2023-03-18T06:45:29;97354.41;;;10.45;53.29
19596;BME280;9945;46.010;8.946;2023-03-18T06:47:57;97349.53;;;10.50;53.25
19596;BME280;9945;46.010;8.946;2023-03-18T06:50:25;97350.38;;;10.50;53.45
19596;BME280;9945;46.010;8.946;2023-03-18T06:52:52;97348.53;;;10.60;53.68
19596;BME280;9945;46.010;8.946;2023-03-18T06:55:19;97347.34;;;10.73;53.07
19596;BME280;9945;46.010;8.946;2023-03-18T06:57:46;97347.13;;;10.93;52.87
19596;BME280;9945;46.010;8.946;2023-03-18T07:00:14;97342.97;;;11.18;52.35
19596;BME280;9945;46.010;8.946;2023-03-18T07:02:42;97347.47;;;11.44;52.30
19596;BME280;9945;46.010;8.946;2023-03-18T07:05:11;97349.47;;;11.50;52.23
19596;BME280;9945;46.010;8.946;2023-03-18T07:07:39;97352.19;;;11.58;52.00
19596;BME280;9945;46.010;8.946;2023-03-18T07:10:08;97353.25;;;11.65;51.75
19596;BME280;9945;46.010;8.946;2023-03-18T07:12:36;97359.13;;;11.67;51.26
19596;BME280;9945;46.010;8.946;2023-03-18T07:15:05;97355.81;;;11.57;51.42
19596;BME280;9945;46.010;8.946;2023-03-18T07:17:33;97359.25;;;11.75;50.08
19596;BME280;9945;46.010;8.946;2023-03-18T07:19:59;97357.81;;;11.81;50.18
19596;BME280;9945;46.010;8.946;2023-03-18T07:22:31;97355.81;;;12.00;49.53
19596;BME280;9945;46.010;8.946;2023-03-18T07:24:58;97351.47;;;12.09;49.75
19596;BME280;9945;46.010;8.946;2023-03-18T07:27:25;97354.56;;;12.04;49.59
19596;BME280;9945;46.010;8.946;2023-03-18T07:29:53;97350.53;;;12.18;48.52
19596;BME280;9945;46.010;8.946;2023-03-18T07:32:20;97350.28;;;12.29;48.85
19596;BME280;9945;46.010;8.946;2023-03-18T07:34:46;97349.06;;;12.41;48.80
19596;BME280;9945;46.010;8.946;2023-03-18T07:37:14;97349.06;;;12.75;48.01
19596;BME280;9945;46.010;8.946;2023-03-18T07:39:42;97347.94;;;12.94;48.16
19596;BME280;9945;46.010;8.946;2023-03-18T07:42:09;97357.03;;;13.00;48.16
19596;BME280;9945;46.010;8.946;2023-03-18T07:44:36;97352.53;;;13.26;46.53
19596;BME280;9945;46.010;8.946;2023-03-18T07:47:03;97355.81;;;13.44;45.87
19596;BME280;9945;46.010;8.946;2023-03-18T07:49:30;97359.97;;;13.71;47.03
19596;BME280;9945;46.010;8.946;2023-03-18T07:51:57;97366.88;;;13.80;46.21
19596;BME280;9945;46.010;8.946;2023-03-18T07:54:24;97362.78;;;13.86;45.48
19596;BME280;9945;46.010;8.946;2023-03-18T07:56:53;97356.84;;;14.00;45.36
19596;BME280;9945;46.010;8.946;2023-03-18T07:59:19;97366.38;;;14.25;45.85
19596;BME280;9945;46.010;8.946;2023-03-18T08:01:46;97352.19;;;14.34;44.40
19596;BME280;9945;46.010;8.946;2023-03-18T08:04:13;97362.22;;;14.31;44.33
19596;BME280;9945;46.010;8.946;2023-03-18T08:06:40;97360.56;;;14.38;44.29
19596;BME280;9945;46.010;8.946;2023-03-18T08:09:07;97361.75;;;14.44;44.11
19596;BME280;9945;46.010;8.946;2023-03-18T08:11:35;97358.94;;;14.53;45.02
19596;BME280;9945;46.010;8.946;2023-03-18T08:14:03;97369.88;;;14.73;43.82
19596;BME280;9945;46.010;8.946;2023-03-18T08:16:30;97375.25;;;14.32;43.27
19596;BME280;9945;46.010;8.946;2023-03-18T08:18:57;97374.94;;;14.11;44.85
19596;BME280;9945;46.010;8.946;2023-03-18T08:21:24;97365.53;;;14.41;44.05
19596;BME280;9945;46.010;8.946;2023-03-18T08:23:51;97372.91;;;14.62;43.45
19596;BME280;9945;46.010;8.946;2023-03-18T08:26:18;97370.91;;;15.11;43.06
19596;BME280;9945;46.010;8.946;2023-03-18T08:28:45;97370.56;;;15.14;43.19
19596;BME280;9945;46.010;8.946;2023-03-18T08:31:13;97378.09;;;14.86;43.42
19596;BME280;9945;46.010;8.946;2023-03-18T08:33:40;97366.03;;;15.23;43.57
19596;BME280;9945;46.010;8.946;2023-03-18T08:36:08;97370.31;;;15.63;42.26
19596;BME280;9945;46.010;8.946;2023-03-18T08:38:34;97374.00;;;15.54;42.19
19596;BME280;9945;46.010;8.946;2023-03-18T08:41:01;97367.09;;;15.44;42.78
19596;BME280;9945;46.010;8.946;2023-03-18T08:43:28;97373.09;;;15.84;42.35
19596;BME280;9945;46.010;8.946;2023-03-18T08:45:55;97378.38;;;15.61;42.62
19596;BME280;9945;46.010;8.946;2023-03-18T08:48:24;97374.53;;;15.72;41.65
19596;BME280;9945;46.010;8.946;2023-03-18T08:50:51;97375.22;;;15.88;42.50
19596;BME280;9945;46.010;8.946;2023-03-18T08:53:19;97376.13;;;16.18;40.85
19596;BME280;9945;46.010;8.946;2023-03-18T08:55:46;97370.81;;;16.41;40.97
19596;BME280;9945;46.010;8.946;2023-03-18T08:58:13;97370.81;;;16.85;41.27
19596;BME280;9945;46.010;8.946;2023-03-18T09:00:40;97367.59;;;17.19;40.00
19596;BME280;9945;46.010;8.946;2023-03-18T09:03:08;97367.88;;;17.24;39.00
19596;BME280;9945;46.010;8.946;2023-03-18T09:05:36;97374.72;;;17.04;38.00
19596;BME280;9945;46.010;8.946;2023-03-18T09:08:03;97366.69;;;17.48;36.88
19596;BME280;9945;46.010;8.946;2023-03-18T09:10:31;97376.53;;;17.69;37.86
19596;BME280;9945;46.010;8.946;2023-03-18T09:12:58;97376.41;;;17.98;36.76
19596;BME280;9945;46.010;8.946;2023-03-18T09:15:25;97373.59;;;18.06;36.21
19596;BME280;9945;46.010;8.946;2023-03-18T09:17:52;97375.50;;;18.40;34.96
19596;BME280;9945;46.010;8.946;2023-03-18T09:20:19;97370.78;;;18.64;33.27
19596;BME280;9945;46.010;8.946;2023-03-18T09:22:48;97371.16;;;18.33;32.95
19596;BME280;9945;46.010;8.946;2023-03-18T09:25:17;97362.91;;;18.21;34.13
19596;BME280;9945;46.010;8.946;2023-03-18T09:27:44;97354.41;;;18.04;34.19
19596;BME280;9945;46.010;8.946;2023-03-18T09:30:12;97353.31;;;18.76;32.77
19596;BME280;9945;46.010;8.946;2023-03-18T09:32:40;97347.91;;;18.97;31.82
19596;BME280;9945;46.010;8.946;2023-03-18T09:35:07;97359.72;;;19.36;32.89
19596;BME280;9945;46.010;8.946;2023-03-18T09:37:35;97355.16;;;20.56;29.93
19596;BME280;9945;46.010;8.946;2023-03-18T09:40:04;97346.34;;;22.03;28.37
19596;BME280;9945;46.010;8.946;2023-03-18T09:42:42;97361.84;;;23.83;26.21
19596;BME280;9945;46.010;8.946;2023-03-18T09:45:19;97359.97;;;23.72;27.23
19596;BME280;9945;46.010;8.946;2023-03-18T09:48:24;97354.91;;;26.35;22.97
19596;BME280;9945;46.010;8.946;2023-03-18T09:51:03;97352.50;;;27.33;21.55
19596;BME280;9945;46.010;8.946;2023-03-18T09:53:39;97342.66;;;29.55;19.56
19596;BME280;9945;46.010;8.946;2023-03-18T09:56:13;97347.13;;;31.97;17.94
19596;BME280;9945;46.010;8.946;2023-03-18T09:58:48;97357.38;;;33.20;17.11
19596;BME280;9945;46.010;8.946;2023-03-18T10:01:19;97358.75;;;33.23;16.18
19596;BME280;9945;46.010;8.946;2023-03-18T10:03:50;97359.94;;;33.97;15.72
19596;BME280;9945;46.010;8.946;2023-03-18T10:06:21;97356.13;;;34.35;15.60
19596;BME280;9945;46.010;8.946;2023-03-18T10:08:54;97368.00;;;36.84;14.36
19596;BME280;9945;46.010;8.946;2023-03-18T10:11:30;97358.66;;;38.76;12.61
19596;BME280;9945;46.010;8.946;2023-03-18T10:14:09;97356.06;;;40.06;11.69
19596;BME280;9945;46.010;8.946;2023-03-18T10:16:49;97358.94;;;41.08;11.22
19596;BME280;9945;46.010;8.946;2023-03-18T10:19:18;97355.31;;;40.83;11.28
19596;BME280;9945;46.010;8.946;2023-03-18T10:21:52;97362.97;;;41.60;10.58
19596;BME280;9945;46.010;8.946;2023-03-18T10:24:29;97364.19;;;40.56;10.41
19596;BME280;9945;46.010;8.946;2023-03-18T10:27:09;97362.97;;;41.60;10.37
19596;BME280;9945;46.010;8.946;2023-03-18T10:29:44;97360.59;;;41.86;10.27
19596;BME280;9945;46.010;8.946;2023-03-18T10:32:21;97367.81;;;42.03;10.24
19596;BME280;9945;46.010;8.946;2023-03-18T10:35:01;97373.19;;;42.51;9.75
19596;BME280;9945;46.010;8.946;2023-03-18T10:37:40;97359.69;;;42.62;9.98
19596;BME280;9945;46.010;8.946;2023-03-18T10:40:14;97361.53;;;43.33;9.21
19596;BME280;9945;46.010;8.946;2023-03-18T10:42:44;97363.94;;;42.59;9.54
19596;BME280;9945;46.010;8.946;2023-03-18T10:45:20;97364.44;;;43.91;9.52
19596;BME280;9945;46.010;8.946;2023-03-18T10:47:53;97362.91;;;44.70;8.82
19596;BME280;9945;46.010;8.946;2023-03-18T10:50:29;97359.91;;;43.32;9.03
19596;BME280;9945;46.010;8.946;2023-03-18T10:53:01;97356.59;;;43.93;9.21
19596;BME280;9945;46.010;8.946;2023-03-18T10:55:34;97355.44;;;41.97;10.04
19596;BME280;9945;46.010;8.946;2023-03-18T10:58:14;97355.09;;;43.13;9.49
19596;BME280;9945;46.010;8.946;2023-03-18T11:00:41;97356.66;;;43.77;9.20
19596;BME280;9945;46.010;8.946;2023-03-18T11:03:18;97350.25;;;44.46;8.74
19596;BME280;9945;46.010;8.946;2023-03-18T11:05:48;97349.75;;;44.83;8.66
19596;BME280;9945;46.010;8.946;2023-03-18T11:08:34;97340.25;;;45.07;7.80
19596;BME280;9945;46.010;8.946;2023-03-18T11:11:13;97347.00;;;44.25;8.51
19596;BME280;9945;46.010;8.946;2023-03-18T11:13:46;97339.88;;;45.31;8.28
19596;BME280;9945;46.010;8.946;2023-03-18T11:16:22;97343.31;;;45.74;8.22
19596;BME280;9945;46.010;8.946;2023-03-18T11:18:53;97334.09;;;42.06;9.86
19596;BME280;9945;46.010;8.946;2023-03-18T11:21:21;97321.28;;;39.18;11.38
19596;BME280;9945;46.010;8.946;2023-03-18T11:23:52;97311.16;;;36.33;12.67
19596;BME280;9945;46.010;8.946;2023-03-18T11:26:53;97306.50;;;34.25;15.08
19596;BME280;9945;46.010;8.946;2023-03-18T11:29:24;97307.00;;;33.75;15.48
19596;BME280;9945;46.010;8.946;2023-03-18T11:31:53;97296.03;;;31.75;16.72
19596;BME280;9945;46.010;8.946;2023-03-18T11:34:23;97289.53;;;31.81;16.97
19596;BME280;9945;46.010;8.946;2023-03-18T11:36:55;97291.97;;;31.28;16.73
19596;BME280;9945;46.010;8.946;2023-03-18T11:39:24;97285.22;;;31.26;16.77
19596;BME280;9945;46.010;8.946;2023-03-18T11:41:53;97287.88;;;29.75;18.13
19596;BME280;9945;46.010;8.946;2023-03-18T11:44:27;97285.22;;;26.29;21.00
19596;BME280;9945;46.010;8.946;2023-03-18T11:47:00;97289.50;;;26.47;21.54
19596;BME280;9945;46.010;8.946;2023-03-18T11:49:28;97282.53;;;26.12;21.54
19596;BME280;9945;46.010;8.946;2023-03-18T11:52:14;97270.00;;;27.17;20.59
19596;BME280;9945;46.010;8.946;2023-03-18T11:55:03;97260.84;;;27.13;20.70
19596;BME280;9945;46.010;8.946;2023-03-18T11:57:45;97259.19;;;28.71;20.13
19596;BME280;9945;46.010;8.946;2023-03-18T12:00:28;97265.09;;;29.30;18.71
19596;BME280;9945;46.010;8.946;2023-03-18T12:03:27;97267.31;;;28.34;19.40
19596;BME280;9945;46.010;8.946;2023-03-18T12:06:04;97256.59;;;28.07;20.02
19596;BME280;9945;46.010;8.946;2023-03-18T12:08:45;97262.75;;;28.35;19.71
19596;BME280;9945;46.010;8.946;2023-03-18T12:11:20;97249.81;;;28.84;19.49
19596;BME280;9945;46.010;8.946;2023-03-18T12:14:00;97247.06;;;28.74;19.65
19596;BME280;9945;46.010;8.946;2023-03-18T12:16:44;97253.84;;;29.59;18.98
19596;BME280;9945;46.010;8.946;2023-03-18T12:19:42;97238.47;;;30.10;18.55
19596;BME280;9945;46.010;8.946;2023-03-18T12:22:39;97246.28;;;31.61;16.79
19596;BME280;9945;46.010;8.946;2023-03-18T12:25:21;97248.41;;;29.44;17.73
19596;BME280;9945;46.010;8.946;2023-03-18T12:27:59;97243.84;;;29.64;18.51
19596;BME280;9945;46.010;8.946;2023-03-18T12:30:48;97247.56;;;30.65;17.39
19596;BME280;9945;46.010;8.946;2023-03-18T12:36:16;97242.34;;;32.16;16.39
19596;BME280;9945;46.010;8.946;2023-03-18T12:39:13;97234.44;;;31.51;16.70
19596;BME280;9945;46.010;8.946;2023-03-18T12:41:52;97234.72;;;32.94;15.13
19596;BME280;9945;46.010;8.946;2023-03-18T12:44:52;97229.78;;;33.58;15.29
19596;BME280;9945;46.010;8.946;2023-03-18T12:47:26;97226.69;;;33.64;15.26
19596;BME280;9945;46.010;8.946;2023-03-18T12:49:58;97234.75;;;34.94;13.58
19596;BME280;9945;46.010;8.946;2023-03-18T12:52:30;97231.41;;;33.40;15.79
19596;BME280;9945;46.010;8.946;2023-03-18T12:55:08;97226.16;;;34.60;14.76
19596;BME280;9945;46.010;8.946;2023-03-18T12:57:40;97227.31;;;33.42;14.98
19596;BME280;9945;46.010;8.946;2023-03-18T13:00:20;97224.63;;;33.19;15.63
19596;BME280;9945;46.010;8.946;2023-03-18T13:02:59;97225.47;;;34.08;14.64
19596;BME280;9945;46.010;8.946;2023-03-18T13:05:39;97235.34;;;31.81;16.22
19596;BME280;9945;46.010;8.946;2023-03-18T13:11:18;97215.16;;;29.23;18.48
19596;BME280;9945;46.010;8.946;2023-03-18T13:13:51;97208.59;;;28.88;18.63
19596;BME280;9945;46.010;8.946;2023-03-18T13:16:20;97226.88;;;27.06;20.60
19596;BME280;9945;46.010;8.946;2023-03-18T13:18:51;97217.22;;;26.62;21.02
19596;BME280;9945;46.010;8.946;2023-03-18T13:21:22;97223.94;;;27.08;20.94
19596;BME280;9945;46.010;8.946;2023-03-18T13:24:14;97224.31;;;28.49;19.45
19596;BME280;9945;46.010;8.946;2023-03-18T13:26:55;97209.97;;;28.91;19.86
19596;BME280;9945;46.010;8.946;2023-03-18T13:29:33;97220.19;;;28.89;18.95
19596;BME280;9945;46.010;8.946;2023-03-18T13:35:16;97215.78;;;30.16;18.62
19596;BME280;9945;46.010;8.946;2023-03-18T13:38:08;97207.41;;;29.57;18.39